RJSC/GAJ METAR and TAF weather

Enter ICAO airport designator
Station Type Date Time Source
RJSC METAR 2022/05/24 10:00 UTC NOAA

RJSC 241000Z 05007KT CAVOK 21/08 Q1014


Station Type Date Time Source
RJSC Decoded METAR 2022/05/24 10:00 UTC NOAA

Yamagata Airport, Japan (RJSC) 38-25N 140-22E 108M
May 24, 2022 - 06:00 AM EDT / 2022.05.24 1000 UTC
Wind: from the NE (050 degrees) at 8 MPH (7 KT):0
Visibility: greater than 7 mile(s):0
Temperature: 69 F (21 C)
Dew Point: 46 F (8 C)
Relative Humidity: 43%
Pressure (altimeter): 29.94 in. Hg (1014 hPa)
ob: RJSC 241000Z 05007KT CAVOK 21/08 Q1014
cycle: 10

Station Type Date Time Source
RJSC TAF UTC NOAA

Error!

Example: see airport list